sensor_id;sensor_type;location;lat;lon;timestamp;P1;durP1;ratioP1;P2;durP2;ratioP2
21848;SDS011;11089;49.852;19.700;2023-03-13T00:00:49;7.47;;;4.45;;
21848;SDS011;11089;49.852;19.700;2023-03-13T00:03:51;7.90;;;4.30;;
21848;SDS011;11089;49.852;19.700;2023-03-13T00:06:54;5.65;;;3.85;;
21848;SDS011;11089;49.852;19.700;2023-03-13T00:09:55;7.88;;;3.90;;
21848;SDS011;11089;49.852;19.700;2023-03-13T00:12:56;7.72;;;4.75;;
21848;SDS011;11089;49.852;19.700;2023-03-13T00:16:00;6.70;;;4.25;;
21848;SDS011;11089;49.852;19.700;2023-03-13T00:19:03;8.35;;;4.40;;
21848;SDS011;11089;49.852;19.700;2023-03-13T00:22:05;8.60;;;4.10;;
21848;SDS011;11089;49.852;19.700;2023-03-13T00:25:06;7.93;;;4.45;;
21848;SDS011;11089;49.852;19.700;2023-03-13T00:28:07;6.75;;;3.95;;
21848;SDS011;11089;49.852;19.700;2023-03-13T00:34:30;7.03;;;3.90;;
21848;SDS011;11089;49.852;19.700;2023-03-13T00:37:31;8.43;;;4.50;;
21848;SDS011;11089;49.852;19.700;2023-03-13T00:40:32;8.02;;;3.90;;
21848;SDS011;11089;49.852;19.700;2023-03-13T00:43:33;8.68;;;4.10;;
21848;SDS011;11089;49.852;19.700;2023-03-13T00:46:35;8.95;;;4.15;;
21848;SDS011;11089;49.852;19.700;2023-03-13T00:49:35;8.27;;;4.60;;
21848;SDS011;11089;49.852;19.700;2023-03-13T00:52:36;7.28;;;4.07;;
21848;SDS011;11089;49.852;19.700;2023-03-13T00:55:37;7.07;;;4.00;;
21848;SDS011;11089;49.852;19.700;2023-03-13T00:58:39;6.70;;;3.60;;
21848;SDS011;11089;49.852;19.700;2023-03-13T01:01:41;6.65;;;3.83;;
21848;SDS011;11089;49.852;19.700;2023-03-13T01:04:42;5.70;;;3.40;;
21848;SDS011;11089;49.852;19.700;2023-03-13T01:07:43;4.93;;;3.65;;
21848;SDS011;11089;49.852;19.700;2023-03-13T01:10:44;5.82;;;3.85;;
21848;SDS011;11089;49.852;19.700;2023-03-13T01:13:45;5.85;;;3.35;;
21848;SDS011;11089;49.852;19.700;2023-03-13T01:16:47;5.68;;;3.42;;
21848;SDS011;11089;49.852;19.700;2023-03-13T01:19:48;7.30;;;3.80;;
21848;SDS011;11089;49.852;19.700;2023-03-13T01:22:49;8.20;;;3.30;;
21848;SDS011;11089;49.852;19.700;2023-03-13T01:25:50;7.63;;;3.97;;
21848;SDS011;11089;49.852;19.700;2023-03-13T01:28:51;6.63;;;3.75;;
21848;SDS011;11089;49.852;19.700;2023-03-13T01:31:52;7.05;;;3.80;;
21848;SDS011;11089;49.852;19.700;2023-03-13T01:34:54;6.95;;;3.30;;
21848;SDS011;11089;49.852;19.700;2023-03-13T01:37:55;5.45;;;3.72;;
21848;SDS011;11089;49.852;19.700;2023-03-13T01:40:56;5.47;;;3.75;;
21848;SDS011;11089;49.852;19.700;2023-03-13T01:43:57;6.32;;;3.30;;
21848;SDS011;11089;49.852;19.700;2023-03-13T01:46:58;6.43;;;3.50;;
21848;SDS011;11089;49.852;19.700;2023-03-13T01:49:59;9.30;;;3.67;;
21848;SDS011;11089;49.852;19.700;2023-03-13T01:53:00;5.30;;;3.65;;
21848;SDS011;11089;49.852;19.700;2023-03-13T01:56:01;6.88;;;3.67;;
21848;SDS011;11089;49.852;19.700;2023-03-13T01:59:07;6.50;;;3.38;;
21848;SDS011;11089;49.852;19.700;2023-03-13T02:02:12;7.20;;;3.45;;
21848;SDS011;11089;49.852;19.700;2023-03-13T02:05:15;6.07;;;3.53;;
21848;SDS011;11089;49.852;19.700;2023-03-13T02:08:18;5.35;;;3.30;;
21848;SDS011;11089;49.852;19.700;2023-03-13T02:11:26;5.90;;;3.60;;
21848;SDS011;11089;49.852;19.700;2023-03-13T02:14:37;6.63;;;3.80;;
21848;SDS011;11089;49.852;19.700;2023-03-13T02:17:40;5.65;;;3.58;;
21848;SDS011;11089;49.852;19.700;2023-03-13T02:20:43;4.57;;;3.45;;
21848;SDS011;11089;49.852;19.700;2023-03-13T02:23:48;6.05;;;3.90;;
21848;SDS011;11089;49.852;19.700;2023-03-13T02:26:55;5.60;;;3.72;;
21848;SDS011;11089;49.852;19.700;2023-03-13T02:29:57;5.88;;;3.50;;
21848;SDS011;11089;49.852;19.700;2023-03-13T02:32:59;6.10;;;3.60;;
21848;SDS011;11089;49.852;19.700;2023-03-13T02:36:01;6.15;;;3.65;;
21848;SDS011;11089;49.852;19.700;2023-03-13T02:39:04;6.22;;;3.55;;
21848;SDS011;11089;49.852;19.700;2023-03-13T02:42:06;6.35;;;3.17;;
21848;SDS011;11089;49.852;19.700;2023-03-13T02:45:07;5.28;;;3.53;;
21848;SDS011;11089;49.852;19.700;2023-03-13T02:48:09;6.47;;;3.53;;
21848;SDS011;11089;49.852;19.700;2023-03-13T02:51:12;7.18;;;3.38;;
21848;SDS011;11089;49.852;19.700;2023-03-13T02:54:29;5.10;;;3.17;;
21848;SDS011;11089;49.852;19.700;2023-03-13T02:57:34;8.98;;;4.32;;
21848;SDS011;11089;49.852;19.700;2023-03-13T03:00:35;5.38;;;3.42;;
21848;SDS011;11089;49.852;19.700;2023-03-13T03:03:36;5.38;;;3.60;;
21848;SDS011;11089;49.852;19.700;2023-03-13T03:06:37;6.60;;;3.47;;
21848;SDS011;11089;49.852;19.700;2023-03-13T03:09:38;5.70;;;3.65;;
21848;SDS011;11089;49.852;19.700;2023-03-13T03:12:39;5.72;;;3.70;;
21848;SDS011;11089;49.852;19.700;2023-03-13T03:15:40;5.43;;;3.80;;
21848;SDS011;11089;49.852;19.700;2023-03-13T03:18:41;7.63;;;3.90;;
21848;SDS011;11089;49.852;19.700;2023-03-13T03:21:42;7.70;;;3.50;;
21848;SDS011;11089;49.852;19.700;2023-03-13T03:24:43;7.88;;;4.32;;
21848;SDS011;11089;49.852;19.700;2023-03-13T03:27:44;6.38;;;3.97;;
21848;SDS011;11089;49.852;19.700;2023-03-13T03:30:45;6.20;;;3.35;;
21848;SDS011;11089;49.852;19.700;2023-03-13T03:33:46;5.68;;;3.83;;
21848;SDS011;11089;49.852;19.700;2023-03-13T03:36:47;6.40;;;3.90;;
21848;SDS011;11089;49.852;19.700;2023-03-13T03:39:48;6.88;;;3.80;;
21848;SDS011;11089;49.852;19.700;2023-03-13T03:42:49;10.30;;;4.85;;
21848;SDS011;11089;49.852;19.700;2023-03-13T03:45:50;8.35;;;4.25;;
21848;SDS011;11089;49.852;19.700;2023-03-13T03:48:51;7.00;;;3.97;;
21848;SDS011;11089;49.852;19.700;2023-03-13T03:51:52;7.07;;;4.20;;
21848;SDS011;11089;49.852;19.700;2023-03-13T03:54:53;5.22;;;3.65;;
21848;SDS011;11089;49.852;19.700;2023-03-13T03:57:54;7.10;;;4.18;;
21848;SDS011;11089;49.852;19.700;2023-03-13T04:00:56;5.95;;;3.72;;
21848;SDS011;11089;49.852;19.700;2023-03-13T04:03:57;5.50;;;3.33;;
21848;SDS011;11089;49.852;19.700;2023-03-13T04:06:58;6.90;;;3.42;;
21848;SDS011;11089;49.852;19.700;2023-03-13T04:09:59;6.43;;;3.80;;
21848;SDS011;11089;49.852;19.700;2023-03-13T04:13:00;5.57;;;3.63;;
21848;SDS011;11089;49.852;19.700;2023-03-13T04:16:08;7.75;;;3.90;;
21848;SDS011;11089;49.852;19.700;2023-03-13T04:19:09;5.82;;;3.80;;
21848;SDS011;11089;49.852;19.700;2023-03-13T04:22:10;7.10;;;3.88;;
21848;SDS011;11089;49.852;19.700;2023-03-13T04:25:11;5.35;;;3.50;;
21848;SDS011;11089;49.852;19.700;2023-03-13T04:28:12;5.43;;;3.58;;
21848;SDS011;11089;49.852;19.700;2023-03-13T04:31:13;7.13;;;3.47;;
21848;SDS011;11089;49.852;19.700;2023-03-13T04:34:14;7.82;;;4.00;;
21848;SDS011;11089;49.852;19.700;2023-03-13T04:37:15;5.70;;;3.60;;
21848;SDS011;11089;49.852;19.700;2023-03-13T04:40:17;7.50;;;4.40;;
21848;SDS011;11089;49.852;19.700;2023-03-13T04:43:18;8.05;;;4.30;;
21848;SDS011;11089;49.852;19.700;2023-03-13T04:46:19;7.10;;;4.28;;
21848;SDS011;11089;49.852;19.700;2023-03-13T04:49:20;8.75;;;3.90;;
21848;SDS011;11089;49.852;19.700;2023-03-13T04:52:21;7.90;;;4.22;;
21848;SDS011;11089;49.852;19.700;2023-03-13T04:55:22;6.85;;;4.28;;
21848;SDS011;11089;49.852;19.700;2023-03-13T04:58:23;6.30;;;3.97;;
21848;SDS011;11089;49.852;19.700;2023-03-13T05:01:23;9.10;;;4.35;;
21848;SDS011;11089;49.852;19.700;2023-03-13T05:04:24;8.23;;;4.63;;
21848;SDS011;11089;49.852;19.700;2023-03-13T05:07:25;8.60;;;4.10;;
21848;SDS011;11089;49.852;19.700;2023-03-13T05:10:26;9.57;;;3.80;;
21848;SDS011;11089;49.852;19.700;2023-03-13T05:13:27;8.00;;;4.05;;
21848;SDS011;11089;49.852;19.700;2023-03-13T05:16:29;7.93;;;4.38;;
21848;SDS011;11089;49.852;19.700;2023-03-13T05:19:30;7.38;;;4.60;;
21848;SDS011;11089;49.852;19.700;2023-03-13T05:22:31;10.35;;;4.78;;
21848;SDS011;11089;49.852;19.700;2023-03-13T05:25:32;11.05;;;4.65;;
21848;SDS011;11089;49.852;19.700;2023-03-13T05:28:33;8.85;;;4.68;;
21848;SDS011;11089;49.852;19.700;2023-03-13T05:31:34;10.38;;;4.43;;
21848;SDS011;11089;49.852;19.700;2023-03-13T05:34:35;9.55;;;4.68;;
21848;SDS011;11089;49.852;19.700;2023-03-13T05:37:36;11.10;;;4.85;;
21848;SDS011;11089;49.852;19.700;2023-03-13T05:40:37;10.15;;;4.50;;
21848;SDS011;11089;49.852;19.700;2023-03-13T05:43:38;10.75;;;4.88;;
21848;SDS011;11089;49.852;19.700;2023-03-13T05:46:39;10.68;;;5.43;;
21848;SDS011;11089;49.852;19.700;2023-03-13T05:49:40;10.05;;;4.68;;
21848;SDS011;11089;49.852;19.700;2023-03-13T05:52:41;13.43;;;4.70;;
21848;SDS011;11089;49.852;19.700;2023-03-13T05:55:42;13.50;;;5.82;;
21848;SDS011;11089;49.852;19.700;2023-03-13T05:58:43;11.27;;;4.88;;
21848;SDS011;11089;49.852;19.700;2023-03-13T06:01:44;9.77;;;4.50;;
21848;SDS011;11089;49.852;19.700;2023-03-13T06:04:45;8.38;;;4.32;;
21848;SDS011;11089;49.852;19.700;2023-03-13T06:07:48;11.10;;;4.57;;
21848;SDS011;11089;49.852;19.700;2023-03-13T06:10:49;7.35;;;4.22;;
21848;SDS011;11089;49.852;19.700;2023-03-13T06:13:50;10.00;;;4.00;;
21848;SDS011;11089;49.852;19.700;2023-03-13T06:16:53;9.20;;;4.55;;
21848;SDS011;11089;49.852;19.700;2023-03-13T06:19:54;13.48;;;4.28;;
21848;SDS011;11089;49.852;19.700;2023-03-13T06:22:55;9.73;;;4.70;;
21848;SDS011;11089;49.852;19.700;2023-03-13T06:25:56;12.18;;;4.57;;
21848;SDS011;11089;49.852;19.700;2023-03-13T06:28:57;11.35;;;4.28;;
21848;SDS011;11089;49.852;19.700;2023-03-13T06:31:58;12.35;;;4.43;;
21848;SDS011;11089;49.852;19.700;2023-03-13T06:34:59;9.68;;;4.75;;
21848;SDS011;11089;49.852;19.700;2023-03-13T06:38:00;7.70;;;4.20;;
21848;SDS011;11089;49.852;19.700;2023-03-13T06:41:01;10.80;;;4.40;;
21848;SDS011;11089;49.852;19.700;2023-03-13T06:44:02;6.88;;;3.80;;
21848;SDS011;11089;49.852;19.700;2023-03-13T06:47:04;10.15;;;4.30;;
21848;SDS011;11089;49.852;19.700;2023-03-13T06:50:05;10.85;;;3.97;;
21848;SDS011;11089;49.852;19.700;2023-03-13T06:53:08;8.82;;;3.55;;
21848;SDS011;11089;49.852;19.700;2023-03-13T06:56:18;7.20;;;3.90;;
21848;SDS011;11089;49.852;19.700;2023-03-13T06:59:20;11.50;;;4.45;;
21848;SDS011;11089;49.852;19.700;2023-03-13T07:02:21;11.93;;;4.65;;
21848;SDS011;11089;49.852;19.700;2023-03-13T07:05:23;10.57;;;4.00;;
21848;SDS011;11089;49.852;19.700;2023-03-13T07:08:25;9.50;;;4.07;;
21848;SDS011;11089;49.852;19.700;2023-03-13T07:11:26;10.25;;;3.50;;
21848;SDS011;11089;49.852;19.700;2023-03-13T07:14:27;7.80;;;4.05;;
21848;SDS011;11089;49.852;19.700;2023-03-13T07:17:28;11.35;;;4.30;;
21848;SDS011;11089;49.852;19.700;2023-03-13T07:20:29;8.98;;;3.60;;
21848;SDS011;11089;49.852;19.700;2023-03-13T07:23:30;7.90;;;4.32;;
21848;SDS011;11089;49.852;19.700;2023-03-13T07:26:32;8.73;;;4.07;;
21848;SDS011;11089;49.852;19.700;2023-03-13T07:29:33;9.02;;;3.42;;
21848;SDS011;11089;49.852;19.700;2023-03-13T07:32:34;7.60;;;3.42;;
21848;SDS011;11089;49.852;19.700;2023-03-13T07:35:34;5.68;;;3.42;;
21848;SDS011;11089;49.852;19.700;2023-03-13T07:38:35;7.18;;;3.03;;
21848;SDS011;11089;49.852;19.700;2023-03-13T07:41:37;6.63;;;2.58;;
21848;SDS011;11089;49.852;19.700;2023-03-13T07:44:38;5.00;;;2.80;;
21848;SDS011;11089;49.852;19.700;2023-03-13T07:47:39;4.78;;;2.92;;
21848;SDS011;11089;49.852;19.700;2023-03-13T07:50:40;6.43;;;3.30;;
21848;SDS011;11089;49.852;19.700;2023-03-13T07:53:42;11.00;;;3.72;;
21848;SDS011;11089;49.852;19.700;2023-03-13T07:56:44;6.57;;;3.63;;
21848;SDS011;11089;49.852;19.700;2023-03-13T07:59:45;12.25;;;3.47;;
21848;SDS011;11089;49.852;19.700;2023-03-13T08:02:46;8.57;;;3.55;;
21848;SDS011;11089;49.852;19.700;2023-03-13T08:05:47;14.32;;;4.97;;
21848;SDS011;11089;49.852;19.700;2023-03-13T08:08:56;9.18;;;4.30;;
21848;SDS011;11089;49.852;19.700;2023-03-13T08:11:59;9.52;;;4.20;;
21848;SDS011;11089;49.852;19.700;2023-03-13T08:14:59;6.97;;;4.20;;
21848;SDS011;11089;49.852;19.700;2023-03-13T08:18:00;6.82;;;4.00;;
21848;SDS011;11089;49.852;19.700;2023-03-13T08:21:05;10.15;;;3.92;;
21848;SDS011;11089;49.852;19.700;2023-03-13T08:24:09;8.68;;;4.03;;
21848;SDS011;11089;49.852;19.700;2023-03-13T08:27:12;7.78;;;3.72;;
21848;SDS011;11089;49.852;19.700;2023-03-13T08:30:13;7.60;;;3.67;;
21848;SDS011;11089;49.852;19.700;2023-03-13T08:33:14;10.57;;;4.07;;
21848;SDS011;11089;49.852;19.700;2023-03-13T08:36:19;6.38;;;3.60;;
21848;SDS011;11089;49.852;19.700;2023-03-13T08:39:39;7.30;;;2.80;;
21848;SDS011;11089;49.852;19.700;2023-03-13T08:42:40;10.25;;;3.67;;
21848;SDS011;11089;49.852;19.700;2023-03-13T08:45:41;6.25;;;3.22;;
21848;SDS011;11089;49.852;19.700;2023-03-13T08:48:42;8.35;;;3.65;;
21848;SDS011;11089;49.852;19.700;2023-03-13T08:51:44;7.30;;;2.90;;
21848;SDS011;11089;49.852;19.700;2023-03-13T08:54:48;8.18;;;2.80;;
21848;SDS011;11089;49.852;19.700;2023-03-13T08:57:49;7.38;;;3.25;;
21848;SDS011;11089;49.852;19.700;2023-03-13T09:00:49;6.88;;;2.55;;
21848;SDS011;11089;49.852;19.700;2023-03-13T09:03:51;7.30;;;2.85;;
21848;SDS011;11089;49.852;19.700;2023-03-13T09:06:52;8.27;;;3.10;;
21848;SDS011;11089;49.852;19.700;2023-03-13T09:09:53;6.43;;;2.60;;
21848;SDS011;11089;49.852;19.700;2023-03-13T09:12:54;5.63;;;2.85;;
21848;SDS011;11089;49.852;19.700;2023-03-13T09:15:56;6.72;;;2.67;;
21848;SDS011;11089;49.852;19.700;2023-03-13T09:18:58;6.20;;;2.40;;
21848;SDS011;11089;49.852;19.700;2023-03-13T09:22:00;5.57;;;2.25;;
21848;SDS011;11089;49.852;19.700;2023-03-13T09:25:01;9.27;;;2.85;;
21848;SDS011;11089;49.852;19.700;2023-03-13T09:28:02;8.95;;;2.72;;
21848;SDS011;11089;49.852;19.700;2023-03-13T09:31:07;9.57;;;2.83;;
21848;SDS011;11089;49.852;19.700;2023-03-13T09:34:09;7.72;;;3.13;;
21848;SDS011;11089;49.852;19.700;2023-03-13T09:37:10;7.40;;;3.13;;
21848;SDS011;11089;49.852;19.700;2023-03-13T09:40:14;8.32;;;2.30;;
21848;SDS011;11089;49.852;19.700;2023-03-13T09:46:43;7.28;;;2.42;;
21848;SDS011;11089;49.852;19.700;2023-03-13T09:50:04;4.40;;;2.05;;
21848;SDS011;11089;49.852;19.700;2023-03-13T09:53:18;24.60;;;11.20;;
21848;SDS011;11089;49.852;19.700;2023-03-13T09:56:44;17.38;;;6.80;;
21848;SDS011;11089;49.852;19.700;2023-03-13T09:59:54;13.23;;;5.43;;
21848;SDS011;11089;49.852;19.700;2023-03-13T10:06:37;5.90;;;2.47;;
21848;SDS011;11089;49.852;19.700;2023-03-13T10:09:43;6.55;;;2.65;;
21848;SDS011;11089;49.852;19.700;2023-03-13T10:12:45;6.88;;;2.53;;
21848;SDS011;11089;49.852;19.700;2023-03-13T10:15:49;5.32;;;1.70;;
21848;SDS011;11089;49.852;19.700;2023-03-13T10:18:56;6.15;;;2.60;;
21848;SDS011;11089;49.852;19.700;2023-03-13T10:21:59;3.75;;;1.95;;
21848;SDS011;11089;49.852;19.700;2023-03-13T10:25:04;6.10;;;2.33;;
21848;SDS011;11089;49.852;19.700;2023-03-13T10:28:14;6.00;;;2.00;;
21848;SDS011;11089;49.852;19.700;2023-03-13T10:31:26;8.60;;;2.08;;
21848;SDS011;11089;49.852;19.700;2023-03-13T10:38:07;4.75;;;1.90;;
21848;SDS011;11089;49.852;19.700;2023-03-13T10:44:34;4.15;;;1.80;;
21848;SDS011;11089;49.852;19.700;2023-03-13T10:47:35;4.68;;;1.33;;
21848;SDS011;11089;49.852;19.700;2023-03-13T10:50:40;6.60;;;2.03;;
21848;SDS011;11089;49.852;19.700;2023-03-13T10:53:46;3.88;;;1.55;;
21848;SDS011;11089;49.852;19.700;2023-03-13T10:56:48;4.13;;;1.50;;
21848;SDS011;11089;49.852;19.700;2023-03-13T10:59:50;4.75;;;1.73;;
21848;SDS011;11089;49.852;19.700;2023-03-13T11:02:52;3.92;;;1.55;;
21848;SDS011;11089;49.852;19.700;2023-03-13T11:05:57;4.93;;;1.48;;
21848;SDS011;11089;49.852;19.700;2023-03-13T11:09:02;5.32;;;1.77;;
21848;SDS011;11089;49.852;19.700;2023-03-13T11:12:13;4.50;;;1.38;;
21848;SDS011;11089;49.852;19.700;2023-03-13T11:15:22;4.03;;;1.35;;
21848;SDS011;11089;49.852;19.700;2023-03-13T11:22:18;3.00;;;1.48;;
21848;SDS011;11089;49.852;19.700;2023-03-13T11:29:16;1.77;;;1.23;;
21848;SDS011;11089;49.852;19.700;2023-03-13T11:32:21;1.88;;;1.40;;
21848;SDS011;11089;49.852;19.700;2023-03-13T11:38:44;2.60;;;1.45;;
21848;SDS011;11089;49.852;19.700;2023-03-13T11:52:20;7.88;;;1.88;;
21848;SDS011;11089;49.852;19.700;2023-03-13T11:58:43;3.22;;;1.45;;
21848;SDS011;11089;49.852;19.700;2023-03-13T12:02:00;1.10;;;0.98;;
21848;SDS011;11089;49.852;19.700;2023-03-13T12:05:17;2.22;;;1.13;;
21848;SDS011;11089;49.852;19.700;2023-03-13T12:08:25;2.92;;;1.20;;
21848;SDS011;11089;49.852;19.700;2023-03-13T12:11:39;2.03;;;1.50;;
21848;SDS011;11089;49.852;19.700;2023-03-13T12:15:33;2.60;;;1.40;;
21848;SDS011;11089;49.852;19.700;2023-03-13T12:18:28;1.70;;;1.13;;
21848;SDS011;11089;49.852;19.700;2023-03-13T12:21:36;1.73;;;1.23;;
21848;SDS011;11089;49.852;19.700;2023-03-13T12:24:48;4.50;;;1.50;;
21848;SDS011;11089;49.852;19.700;2023-03-13T12:31:20;3.00;;;1.50;;
21848;SDS011;11089;49.852;19.700;2023-03-13T12:37:52;2.53;;;1.55;;
21848;SDS011;11089;49.852;19.700;2023-03-13T12:41:55;3.47;;;1.85;;
21848;SDS011;11089;49.852;19.700;2023-03-13T12:44:29;3.10;;;2.08;;
21848;SDS011;11089;49.852;19.700;2023-03-13T12:47:32;6.72;;;1.75;;
21848;SDS011;11089;49.852;19.700;2023-03-13T13:01:01;19.23;;;8.30;;
21848;SDS011;11089;49.852;19.700;2023-03-13T13:04:05;6.43;;;3.53;;
21848;SDS011;11089;49.852;19.700;2023-03-13T13:10:27;3.05;;;2.35;;
21848;SDS011;11089;49.852;19.700;2023-03-13T13:13:28;5.45;;;2.47;;
21848;SDS011;11089;49.852;19.700;2023-03-13T13:16:31;8.82;;;4.53;;
21848;SDS011;11089;49.852;19.700;2023-03-13T13:25:40;3.05;;;1.75;;
21848;SDS011;11089;49.852;19.700;2023-03-13T13:28:41;3.33;;;1.70;;
21848;SDS011;11089;49.852;19.700;2023-03-13T13:31:44;2.25;;;1.52;;
21848;SDS011;11089;49.852;19.700;2023-03-13T13:34:55;4.20;;;1.85;;
21848;SDS011;11089;49.852;19.700;2023-03-13T13:38:21;4.78;;;1.90;;
21848;SDS011;11089;49.852;19.700;2023-03-13T13:41:33;3.70;;;1.90;;
21848;SDS011;11089;49.852;19.700;2023-03-13T13:44:55;3.15;;;2.00;;
21848;SDS011;11089;49.852;19.700;2023-03-13T13:48:44;5.13;;;2.58;;
21848;SDS011;11089;49.852;19.700;2023-03-13T13:51:25;5.32;;;2.25;;
21848;SDS011;11089;49.852;19.700;2023-03-13T13:54:51;7.53;;;3.42;;
21848;SDS011;11089;49.852;19.700;2023-03-13T13:58:05;2.67;;;1.90;;
21848;SDS011;11089;49.852;19.700;2023-03-13T14:01:13;5.55;;;2.60;;
21848;SDS011;11089;49.852;19.700;2023-03-13T14:04:18;4.50;;;2.97;;
21848;SDS011;11089;49.852;19.700;2023-03-13T14:10:42;5.05;;;2.00;;
21848;SDS011;11089;49.852;19.700;2023-03-13T14:14:07;2.55;;;1.67;;
21848;SDS011;11089;49.852;19.700;2023-03-13T14:17:18;2.28;;;1.70;;
21848;SDS011;11089;49.852;19.700;2023-03-13T14:23:33;3.05;;;1.48;;
21848;SDS011;11089;49.852;19.700;2023-03-13T14:26:41;3.88;;;2.28;;
21848;SDS011;11089;49.852;19.700;2023-03-13T14:29:58;3.03;;;2.00;;
21848;SDS011;11089;49.852;19.700;2023-03-13T14:33:05;7.10;;;3.58;;
21848;SDS011;11089;49.852;19.700;2023-03-13T14:36:06;3.53;;;1.55;;
21848;SDS011;11089;49.852;19.700;2023-03-13T14:39:11;9.18;;;3.80;;
21848;SDS011;11089;49.852;19.700;2023-03-13T14:42:30;5.57;;;2.95;;
21848;SDS011;11089;49.852;19.700;2023-03-13T14:45:48;5.13;;;2.10;;
21848;SDS011;11089;49.852;19.700;2023-03-13T14:48:52;3.55;;;2.20;;
21848;SDS011;11089;49.852;19.700;2023-03-13T14:52:01;5.60;;;2.20;;
21848;SDS011;11089;49.852;19.700;2023-03-13T14:55:06;4.38;;;2.58;;
21848;SDS011;11089;49.852;19.700;2023-03-13T14:58:27;5.05;;;3.28;;
21848;SDS011;11089;49.852;19.700;2023-03-13T15:01:29;5.05;;;2.78;;
21848;SDS011;11089;49.852;19.700;2023-03-13T15:07:51;7.05;;;4.25;;
21848;SDS011;11089;49.852;19.700;2023-03-13T15:10:53;5.78;;;3.45;;
21848;SDS011;11089;49.852;19.700;2023-03-13T15:13:55;8.30;;;4.00;;
21848;SDS011;11089;49.852;19.700;2023-03-13T15:16:57;8.68;;;3.78;;
21848;SDS011;11089;49.852;19.700;2023-03-13T15:19:58;12.93;;;4.35;;
21848;SDS011;11089;49.852;19.700;2023-03-13T15:22:59;17.23;;;5.40;;
21848;SDS011;11089;49.852;19.700;2023-03-13T15:25:59;11.52;;;4.55;;
21848;SDS011;11089;49.852;19.700;2023-03-13T15:29:00;12.93;;;5.10;;
21848;SDS011;11089;49.852;19.700;2023-03-13T15:32:01;10.38;;;4.68;;
21848;SDS011;11089;49.852;19.700;2023-03-13T15:38:23;15.63;;;5.93;;
21848;SDS011;11089;49.852;19.700;2023-03-13T15:41:26;9.82;;;4.15;;
21848;SDS011;11089;49.852;19.700;2023-03-13T15:44:27;6.78;;;2.88;;
21848;SDS011;11089;49.852;19.700;2023-03-13T15:47:28;7.25;;;3.75;;
21848;SDS011;11089;49.852;19.700;2023-03-13T15:50:29;9.80;;;4.53;;
21848;SDS011;11089;49.852;19.700;2023-03-13T15:53:31;7.40;;;3.80;;
21848;SDS011;11089;49.852;19.700;2023-03-13T15:56:36;7.10;;;3.33;;
21848;SDS011;11089;49.852;19.700;2023-03-13T15:59:37;4.63;;;2.58;;
21848;SDS011;11089;49.852;19.700;2023-03-13T16:02:38;8.55;;;3.63;;
21848;SDS011;11089;49.852;19.700;2023-03-13T16:05:39;8.80;;;3.58;;
21848;SDS011;11089;49.852;19.700;2023-03-13T16:08:40;11.15;;;4.45;;
21848;SDS011;11089;49.852;19.700;2023-03-13T16:11:41;7.85;;;4.18;;
21848;SDS011;11089;49.852;19.700;2023-03-13T16:14:44;8.63;;;3.08;;
21848;SDS011;11089;49.852;19.700;2023-03-13T16:17:45;5.22;;;2.63;;
21848;SDS011;11089;49.852;19.700;2023-03-13T16:20:46;4.82;;;2.70;;
21848;SDS011;11089;49.852;19.700;2023-03-13T16:23:47;5.95;;;3.08;;
21848;SDS011;11089;49.852;19.700;2023-03-13T16:26:49;5.10;;;3.22;;
21848;SDS011;11089;49.852;19.700;2023-03-13T16:29:50;6.65;;;3.72;;
21848;SDS011;11089;49.852;19.700;2023-03-13T16:32:51;8.15;;;3.60;;
21848;SDS011;11089;49.852;19.700;2023-03-13T16:35:52;8.88;;;4.50;;
21848;SDS011;11089;49.852;19.700;2023-03-13T16:38:53;5.00;;;2.90;;
21848;SDS011;11089;49.852;19.700;2023-03-13T16:41:55;5.03;;;2.53;;
21848;SDS011;11089;49.852;19.700;2023-03-13T16:44:56;5.18;;;2.88;;
21848;SDS011;11089;49.852;19.700;2023-03-13T16:47:56;4.68;;;3.00;;
21848;SDS011;11089;49.852;19.700;2023-03-13T16:50:57;3.83;;;2.55;;
21848;SDS011;11089;49.852;19.700;2023-03-13T16:53:59;5.82;;;2.80;;
21848;SDS011;11089;49.852;19.700;2023-03-13T16:57:00;4.35;;;2.90;;
21848;SDS011;11089;49.852;19.700;2023-03-13T17:00:09;6.55;;;2.97;;
21848;SDS011;11089;49.852;19.700;2023-03-13T17:03:16;6.40;;;2.70;;
21848;SDS011;11089;49.852;19.700;2023-03-13T17:06:21;4.32;;;2.42;;
21848;SDS011;11089;49.852;19.700;2023-03-13T17:09:23;5.65;;;2.85;;
21848;SDS011;11089;49.852;19.700;2023-03-13T17:12:25;5.95;;;3.13;;
21848;SDS011;11089;49.852;19.700;2023-03-13T17:15:26;6.13;;;3.00;;
21848;SDS011;11089;49.852;19.700;2023-03-13T17:18:28;5.68;;;3.25;;
21848;SDS011;11089;49.852;19.700;2023-03-13T17:21:31;4.57;;;2.88;;
21848;SDS011;11089;49.852;19.700;2023-03-13T17:24:32;14.68;;;5.88;;
21848;SDS011;11089;49.852;19.700;2023-03-13T17:27:33;6.00;;;3.38;;
21848;SDS011;11089;49.852;19.700;2023-03-13T17:30:35;5.25;;;3.10;;
21848;SDS011;11089;49.852;19.700;2023-03-13T17:33:35;8.20;;;4.20;;
21848;SDS011;11089;49.852;19.700;2023-03-13T17:36:37;6.22;;;3.63;;
21848;SDS011;11089;49.852;19.700;2023-03-13T17:39:38;6.70;;;2.70;;
21848;SDS011;11089;49.852;19.700;2023-03-13T17:42:39;5.57;;;3.17;;
21848;SDS011;11089;49.852;19.700;2023-03-13T17:45:40;6.30;;;3.25;;
21848;SDS011;11089;49.852;19.700;2023-03-13T17:48:41;7.70;;;3.83;;
21848;SDS011;11089;49.852;19.700;2023-03-13T17:51:43;4.50;;;2.60;;
21848;SDS011;11089;49.852;19.700;2023-03-13T17:54:46;4.82;;;2.70;;
21848;SDS011;11089;49.852;19.700;2023-03-13T17:57:47;7.85;;;3.35;;
21848;SDS011;11089;49.852;19.700;2023-03-13T18:00:48;5.60;;;3.15;;
21848;SDS011;11089;49.852;19.700;2023-03-13T18:03:50;4.15;;;2.60;;
21848;SDS011;11089;49.852;19.700;2023-03-13T18:06:51;6.18;;;2.38;;
21848;SDS011;11089;49.852;19.700;2023-03-13T18:09:52;5.18;;;2.45;;
21848;SDS011;11089;49.852;19.700;2023-03-13T18:12:53;6.65;;;2.42;;
21848;SDS011;11089;49.852;19.700;2023-03-13T18:15:54;4.78;;;2.65;;
21848;SDS011;11089;49.852;19.700;2023-03-13T18:18:55;5.60;;;2.97;;
21848;SDS011;11089;49.852;19.700;2023-03-13T18:21:56;4.50;;;2.58;;
21848;SDS011;11089;49.852;19.700;2023-03-13T18:24:57;5.82;;;2.78;;
21848;SDS011;11089;49.852;19.700;2023-03-13T18:27:58;14.35;;;3.67;;
21848;SDS011;11089;49.852;19.700;2023-03-13T18:30:59;6.22;;;2.97;;
21848;SDS011;11089;49.852;19.700;2023-03-13T18:34:01;5.53;;;3.20;;
21848;SDS011;11089;49.852;19.700;2023-03-13T18:37:05;6.93;;;3.28;;
21848;SDS011;11089;49.852;19.700;2023-03-13T18:40:23;4.65;;;2.90;;
21848;SDS011;11089;49.852;19.700;2023-03-13T18:43:26;6.95;;;3.22;;
21848;SDS011;11089;49.852;19.700;2023-03-13T18:46:28;6.35;;;2.90;;
21848;SDS011;11089;49.852;19.700;2023-03-13T18:49:31;6.25;;;2.92;;
21848;SDS011;11089;49.852;19.700;2023-03-13T18:52:31;6.88;;;2.53;;
21848;SDS011;11089;49.852;19.700;2023-03-13T18:55:32;6.57;;;2.78;;
21848;SDS011;11089;49.852;19.700;2023-03-13T18:58:33;3.38;;;2.20;;
21848;SDS011;11089;49.852;19.700;2023-03-13T19:01:34;6.88;;;2.80;;
21848;SDS011;11089;49.852;19.700;2023-03-13T19:04:35;6.03;;;2.38;;
21848;SDS011;11089;49.852;19.700;2023-03-13T19:07:36;4.93;;;2.35;;
21848;SDS011;11089;49.852;19.700;2023-03-13T19:10:37;6.53;;;2.70;;
21848;SDS011;11089;49.852;19.700;2023-03-13T19:13:39;4.63;;;2.38;;
21848;SDS011;11089;49.852;19.700;2023-03-13T19:16:49;5.18;;;2.70;;
21848;SDS011;11089;49.852;19.700;2023-03-13T19:19:54;4.05;;;2.50;;
21848;SDS011;11089;49.852;19.700;2023-03-13T19:22:58;3.60;;;2.10;;
21848;SDS011;11089;49.852;19.700;2023-03-13T19:25:59;4.57;;;2.20;;
21848;SDS011;11089;49.852;19.700;2023-03-13T19:29:00;3.95;;;2.20;;